GW6243 Weather Reports


Display with metric or nautical units.
time (UTC)temp
F
wind
direction
speed
MPH
gust
MPH
rain 1hr
in
rain 24hr
in
rain mn
in
humidity
%
barometer
mb
20260504050016 56 306 0.0 2.0 0.00 0.00 0.00 84 1019.2
20260504044524 56 233 0.0 1.0 0.00 0.00 0.00 85 1019.3
20260504043033 56 133 0.0 1.0 0.00 0.00 0.00 83 1019.4
20260504041535 57 231 0.0 0.0 0.00 0.00 0.00 82 1019.5
20260504040014 57 270 2.0 3.0 0.00 0.00 0.00 81 1019.5
20260504034519 57 283 0.0 0.0 0.00 0.00 0.00 81 1019.4
20260504033024 58 283 0.0 0.0 0.00 0.00 0.00 83 1019.5
20260504031526 59 283 0.0 0.0 0.00 0.00 0.00 79 1019.5
20260504030032 59 283 0.0 0.0 0.00 0.00 0.00 79 1019.4
20260504024517 60 283 0.0 0.0 0.00 0.00 0.00 77 1019.3
20260504023026 60 283 0.0 3.0 0.00 0.00 0.00 74 1019.1
20260504021525 61 210 0.0 3.0 0.00 0.00 0.00 74 1019.0
20260504020028 61 3 0.0 0.0 0.00 0.00 0.00 75 1018.9
20260504014536 63 3 0.0 0.0 0.00 0.00 0.00 73 1018.7
20260504013021 64 3 0.0 0.0 0.00 0.00 0.00 65 1018.6
20260504011524 65 3 0.0 0.0 0.00 0.00 0.00 63 1018.5
20260504010026 67 3 0.0 0.0 0.00 0.00 0.00 57 1018.5
20260504004526 69 3 0.0 0.0 0.00 0.00 0.00 51 1018.3
20260504003034 72 3 0.0 0.0 0.00 0.00 0.00 46 1018.4
20260504001520 75 4 0.0 0.0 0.00 0.00 0.00 42 1018.1
20260504000023 75 6 0.0 0.0 0.00 0.00 0.00 40 1018.1
20260503234528 75 319 1.0 6.0 0.00 0.00 0.00 40 1018.2
20260503233030 76 299 2.0 4.0 0.00 0.00 0.00 35 1018.2
20260503231520 76 269 1.0 3.0 0.00 0.00 0.00 34 1018.3
20260503230024 76 281 3.0 4.0 0.00 0.00 0.00 33 1018.3
20260503224506 76 259 2.0 6.0 0.00 0.00 0.00 34 1018.4
20260503223028 75 293 5.0 8.0 0.00 0.00 0.00 35 1018.5
20260503221515 75 297 3.0 9.0 0.00 0.00 0.00 35 1018.6
20260503220025 76 298 2.0 7.0 0.00 0.00 0.00 34 1018.7
20260503214504 76 305 1.0 9.0 0.00 0.00 0.00 35 1018.9
20260503213006 75 325 5.0 8.0 0.00 0.00 0.00 36 1019.1
20260503211514 75 335 3.0 6.0 0.00 0.00 0.00 37 1019.2
20260503210017 75 50 3.0 8.0 0.00 0.00 0.00 37 1019.4
20260503204522 76 311 4.0 8.0 0.00 0.00 0.00 36 1019.6
20260503203004 76 284 3.0 10.0 0.00 0.00 0.00 36 1019.7
20260503201511 74 328 5.0 11.0 0.00 0.00 0.00 38 1019.9
20260503200028 74 331 3.0 10.0 0.00 0.00 0.00 37 1020.0
20260503194518 74 284 5.0 9.0 0.00 0.00 0.00 36 1020.4
20260503193026 74 354 4.0 10.0 0.00 0.00 0.00 38 1020.8
20260503191511 75 32 5.0 9.0 0.00 0.00 0.00 36 1021.0
20260503190012 74 322 4.0 11.0 0.00 0.00 0.00 36 1021.4
20260503184518 75 342 4.0 8.0 0.00 0.00 0.00 35 1021.6
20260503183021 75 258 3.0 11.0 0.00 0.00 0.00 35 1021.7
20260503181526 74 22 2.0 11.0 0.00 0.00 0.00 35 1021.8
20260503180010 74 293 5.0 9.0 0.00 0.00 0.00 35 1022.1
20260503174513 73 314 4.0 8.0 0.00 0.00 0.00 36 1022.2
20260503173019 72 303 7.0 12.0 0.00 0.00 0.00 37 1022.5
20260503171526 72 291 1.0 8.0 0.00 0.00 0.00 39 1022.6
20260503081524 48 248 0.0 0.0 0.00 0.09 0.00 90 1020.2
20260503071520 50 221 1.0 2.0 0.00 0.16 0.00 84 1019.8